Terminal Aerodrome Forecast
Issued by NWS Melbourne, FL

Home | Current Version | Previous Version | Text Only | Print | Product List | Glossary On
Versions: 1 2 3 4 5 6 7 8 9 10 11 12
000
FTUS42 KMLB 281120
TAFDAB
TAF
KDAB 281120Z 2812/2912 09007KT P6SM SCT030
     FM281500 08012G18KT P6SM SCT035 SCT050
      TEMPO 2815/2818 BKN050
     FM290200 06007KT P6SM SCT030=

USA.gov is the U.S. government's official web portal to all federal, state and local government web resources and services.